Portada
Imágenes satélite Pronóstico 15 díasClimaPredicción Marítima Ciclones Rayo AeropuertosFAQ Noticias Acerca
El tiempo : Europa África América del Norte América del Sur Asia Australia-Oceanía Otros
Idiomas Contacto

Ciudad Del Este, Paraguay

Guarani

latitud: 25-27-20S, longitud: 054-50-37W, altitud: 257 m


METAR: SGES 221700Z 09014KT 360V070 CAVOK 31/15 Q1016
TAF: SGES 221550Z 2218/2318 09015KT CAVOK TX32/2219Z TN19/2310Z BECMG 2303/2306 13005KT

Hora: 20:03 (23:03 UTC)

Observación

El informe se hizo hace 6 horas y 3 minutos, a las 17:00 UTC
Viento 14 kt del este, variando entre norte y este-noreste
Temperatura 31°C
Humedad 38%
Presión 1016 hPa
Visibilidad 10 km o más
sin nubes por debajo de 1500 m y sin presencia de cumulonimbus.

Cambiar las unidades

Pronóstico

El informe se hizo hace 7 horas y 13 minutos, a las 15:50 UTC
Pronóstico válido del 22 a las 18 UTC al 23 a las 18 UTC
Viento 15 kt del este
Visibilidad 10 km o más
sin nubes por debajo de 1500 m y sin presencia de cumulonimbus.
Evolucionando progresivamente
del 23 a las 03 UTC al 23 a las 06 UTC
Viento 5 kt del sureste
La información que se ofrece en estas páginas está sujeta a una cláusula de exención de responsabilidad
El tiempo : Europa África América del Norte América del Sur Asia Australia-Oceanía Otros
Imágenes satélite Pronóstico 15 díasClimaPredicción Marítima Ciclones Rayo AeropuertosFAQ Idiomas Contacto Noticias Acerca